Terminal Aerodrome Forecast
Issued by NWS

Home | Current Version | Previous Version | Text Only | Print | Product List | Glossary On
Versions: 1 2 3 4 5 6 7 8 9 10 11 12
000
FTAK31 PANC 282333
TAFAHO
TAF
PAHO 282333Z 2900/2924 25014KT P6SM SKC
     FM290600 VRB03KT P6SM FEW070
     FM292100 25012KT P6SM SCT045 BKN080=

USA.gov is the U.S. government's official web portal to all federal, state and local government web resources and services.